createdAt,value
2023-01-19T00:00:22.766Z,25.83
2023-01-19T00:02:57.722Z,29.77
2023-01-19T00:05:31.914Z,25.45
2023-01-19T00:08:15.220Z,26.30
2023-01-19T00:10:51.122Z,27.60
2023-01-19T00:13:24.760Z,30.15
2023-01-19T00:15:58.586Z,26.02
2023-01-19T00:18:34.021Z,23.75
2023-01-19T00:21:07.746Z,27.10
2023-01-19T00:23:42.365Z,24.95
2023-01-19T00:26:17.319Z,21.52
2023-01-19T00:28:51.360Z,24.02
2023-01-19T00:31:25.223Z,21.17
2023-01-19T00:34:00.129Z,24.27
2023-01-19T00:36:34.791Z,22.15
2023-01-19T00:39:08.588Z,26.10
2023-01-19T00:41:59.677Z,26.92
2023-01-19T00:44:33.183Z,30.63
2023-01-19T00:47:06.986Z,22.50
2023-01-19T00:49:42.086Z,23.10
2023-01-19T00:52:15.814Z,25.58
2023-01-19T00:54:49.329Z,23.77
2023-01-19T00:57:23.469Z,23.20
2023-01-19T00:59:57.068Z,21.98
2023-01-19T01:02:30.978Z,26.27
2023-01-19T01:05:06.766Z,25.98
2023-01-19T01:07:41.634Z,26.90
2023-01-19T01:10:17.258Z,28.80
2023-01-19T01:12:57.488Z,26.58
2023-01-19T01:15:31.760Z,28.13
2023-01-19T01:18:05.765Z,24.85
2023-01-19T01:20:40.656Z,26.45
2023-01-19T01:23:15.246Z,25.13
2023-01-19T01:25:48.912Z,26.55
2023-01-19T01:28:22.721Z,25.92
2023-01-19T01:30:57.119Z,24.45
2023-01-19T01:33:40.047Z,25.00
2023-01-19T01:36:18.976Z,25.35
2023-01-19T01:38:52.775Z,21.45
2023-01-19T01:41:27.291Z,32.00
2023-01-19T01:44:01.987Z,23.30
2023-01-19T01:46:35.561Z,22.38
2023-01-19T01:49:14.554Z,21.13
2023-01-19T01:54:30.414Z,29.75
2023-01-19T01:57:12.297Z,25.20
2023-01-19T01:59:49.596Z,22.27
2023-01-19T02:02:43.952Z,24.98
2023-01-19T02:05:22.166Z,24.05
2023-01-19T02:08:19.820Z,20.00
2023-01-19T02:11:12.540Z,19.70
2023-01-19T02:13:47.695Z,22.88
2023-01-19T02:16:21.777Z,22.67
2023-01-19T02:18:55.350Z,27.10
2023-01-19T02:21:34.787Z,23.73
2023-01-19T02:24:11.022Z,22.83
2023-01-19T02:26:48.017Z,26.58
2023-01-19T02:29:23.949Z,21.85
2023-01-19T02:31:59.791Z,22.88
2023-01-19T02:34:33.917Z,25.45
2023-01-19T02:37:12.137Z,22.52
2023-01-19T02:39:50.786Z,21.30
2023-01-19T02:45:00.675Z,23.63
2023-01-19T02:47:39.942Z,25.20
2023-01-19T02:50:39.451Z,21.55
2023-01-19T02:53:39.022Z,22.38
2023-01-19T02:56:30.824Z,19.50
2023-01-19T02:59:11.030Z,19.48
2023-01-19T03:02:01.244Z,23.35
2023-01-19T03:04:59.441Z,22.58
2023-01-19T03:07:44.044Z,19.88
2023-01-19T03:10:25.210Z,20.67
2023-01-19T03:13:07.581Z,20.15
2023-01-19T03:15:47.920Z,19.73
2023-01-19T03:18:26.050Z,19.15
2023-01-19T03:21:05.001Z,21.13
2023-01-19T03:26:29.164Z,24.15
2023-01-19T03:29:07.176Z,22.17
2023-01-19T03:31:44.403Z,21.17
2023-01-19T03:34:22.014Z,20.65
2023-01-19T03:36:59.879Z,25.57
2023-01-19T03:39:33.763Z,23.70
2023-01-19T03:42:10.876Z,25.50
2023-01-19T03:44:50.469Z,19.92
2023-01-19T03:47:26.534Z,20.95
2023-01-19T03:50:04.723Z,21.95
2023-01-19T03:52:38.610Z,27.23
2023-01-19T03:55:12.557Z,24.20
2023-01-19T03:57:46.529Z,24.40
2023-01-19T04:00:21.909Z,22.13
2023-01-19T04:02:56.504Z,20.88
2023-01-19T04:05:30.363Z,22.80
2023-01-19T04:08:04.138Z,26.88
2023-01-19T04:10:37.962Z,26.70
2023-01-19T04:13:11.744Z,21.85
2023-01-19T04:15:46.609Z,19.55
2023-01-19T04:18:20.460Z,24.67
2023-01-19T04:20:54.217Z,26.65
2023-01-19T04:23:28.125Z,24.23
2023-01-19T04:26:03.099Z,29.63
2023-01-19T04:28:38.025Z,32.28
2023-01-19T04:31:13.405Z,25.00
2023-01-19T04:33:47.181Z,24.48
2023-01-19T04:36:20.879Z,25.13
2023-01-19T04:38:55.128Z,23.33
2023-01-19T04:41:30.288Z,25.83
2023-01-19T04:44:05.943Z,23.65
2023-01-19T04:46:40.856Z,21.95
2023-01-19T04:49:15.292Z,28.35
2023-01-19T04:51:48.893Z,21.58
2023-01-19T04:54:23.134Z,25.05
2023-01-19T04:56:57.203Z,28.45
2023-01-19T04:59:30.934Z,23.48
2023-01-19T05:02:05.971Z,29.58
2023-01-19T05:04:39.717Z,35.50
2023-01-19T05:07:13.507Z,24.25
2023-01-19T05:09:47.188Z,28.40
2023-01-19T05:12:20.907Z,26.77
2023-01-19T05:14:54.588Z,27.17
2023-01-19T05:17:29.624Z,31.35
2023-01-19T05:20:03.737Z,29.02
2023-01-19T05:22:38.421Z,27.70
2023-01-19T05:25:12.189Z,25.13
2023-01-19T05:27:45.930Z,28.52
2023-01-19T05:30:20.035Z,24.17
2023-01-19T05:32:54.965Z,25.42
2023-01-19T05:35:35.538Z,30.60
2023-01-19T05:38:09.559Z,25.27
2023-01-19T05:40:43.577Z,27.27
2023-01-19T05:43:17.220Z,27.27
2023-01-19T05:45:51.242Z,29.17
2023-01-19T05:48:26.694Z,28.48
2023-01-19T05:51:01.524Z,29.42
2023-01-19T05:53:35.314Z,33.63
2023-01-19T05:56:11.104Z,30.50
2023-01-19T05:58:44.907Z,30.15
2023-01-19T06:01:18.759Z,27.20
2023-01-19T06:03:54.219Z,39.15
2023-01-19T06:06:28.249Z,32.30
2023-01-19T06:09:02.002Z,31.67
2023-01-19T06:11:35.911Z,39.38
2023-01-19T06:14:10.720Z,34.47
2023-01-19T06:16:44.913Z,27.77
2023-01-19T06:19:19.904Z,30.25
2023-01-19T06:21:53.700Z,32.50
2023-01-19T06:24:27.869Z,27.75
2023-01-19T06:27:02.168Z,26.80
2023-01-19T06:29:35.727Z,26.52
2023-01-19T06:32:09.627Z,25.55
2023-01-19T06:34:44.632Z,23.77
2023-01-19T06:37:18.621Z,26.77
2023-01-19T06:39:52.325Z,26.35
2023-01-19T06:42:26.376Z,23.45
2023-01-19T06:45:00.056Z,24.63
2023-01-19T06:47:34.435Z,22.35
2023-01-19T06:50:10.689Z,24.33
2023-01-19T06:52:44.611Z,22.77
2023-01-19T06:55:18.705Z,22.83
2023-01-19T06:57:57.428Z,22.50
2023-01-19T07:00:31.129Z,23.20
2023-01-19T07:03:07.433Z,23.25
2023-01-19T07:05:42.420Z,24.77
2023-01-19T07:08:16.515Z,22.27
2023-01-19T07:11:22.167Z,25.33
2023-01-19T07:13:44.754Z,24.42
2023-01-19T07:16:18.907Z,21.40
2023-01-19T07:18:52.733Z,22.05
2023-01-19T07:21:29.314Z,25.15
2023-01-19T07:24:03.398Z,23.92
2023-01-19T07:26:40.819Z,25.77
2023-01-19T07:29:28.343Z,23.95
2023-01-19T07:32:02.286Z,27.17
2023-01-19T07:34:37.235Z,25.50
2023-01-19T07:37:13.023Z,28.35
2023-01-19T07:39:46.786Z,31.70
2023-01-19T07:42:20.337Z,29.23
2023-01-19T07:44:54.641Z,28.38
2023-01-19T07:47:28.383Z,33.42
2023-01-19T07:50:02.340Z,33.28
2023-01-19T07:52:37.358Z,30.92
2023-01-19T07:55:11.331Z,38.40
2023-01-19T07:57:45.172Z,34.95
2023-01-19T08:00:21.901Z,35.20
2023-01-19T08:03:01.259Z,35.15
2023-01-19T08:05:35.557Z,31.02
2023-01-19T08:08:11.479Z,34.80
2023-01-19T08:10:45.413Z,35.92
2023-01-19T08:13:19.032Z,35.45
2023-01-19T08:15:54.225Z,31.67
2023-01-19T08:18:27.894Z,34.30
2023-01-19T08:21:01.957Z,34.47
2023-01-19T08:23:36.957Z,32.13
2023-01-19T08:26:20.723Z,31.38
2023-01-19T08:28:54.807Z,33.78
2023-01-19T08:31:28.946Z,30.08
2023-01-19T08:34:02.802Z,31.67
2023-01-19T08:36:36.700Z,24.83
2023-01-19T08:39:13.217Z,35.22
2023-01-19T08:41:47.063Z,32.10
2023-01-19T08:44:20.767Z,29.00
2023-01-19T08:46:54.774Z,29.13
2023-01-19T08:49:28.401Z,31.17
2023-01-19T08:52:03.065Z,30.30
2023-01-19T08:54:37.923Z,27.95
2023-01-19T08:57:11.906Z,27.25
2023-01-19T08:59:47.351Z,34.65
2023-01-19T09:02:21.400Z,28.58
2023-01-19T09:04:55.401Z,28.80
2023-01-19T09:07:31.524Z,27.60
2023-01-19T09:10:10.560Z,30.50
2023-01-19T09:12:45.040Z,31.10
2023-01-19T09:15:18.768Z,29.23
2023-01-19T09:17:53.460Z,27.38
2023-01-19T09:20:27.165Z,30.63
2023-01-19T09:23:01.030Z,26.77
2023-01-19T09:25:36.358Z,29.33
2023-01-19T09:28:12.591Z,28.95
2023-01-19T09:30:46.393Z,29.67
2023-01-19T09:33:21.174Z,33.00
2023-01-19T09:35:54.799Z,35.40
2023-01-19T09:38:31.548Z,36.30
2023-01-19T09:41:18.179Z,37.53
2023-01-19T09:43:56.537Z,33.33
2023-01-19T09:46:36.307Z,36.47
2023-01-19T09:49:14.795Z,34.65
2023-01-19T09:51:51.556Z,33.75
2023-01-19T09:54:31.218Z,37.75
2023-01-19T09:57:10.739Z,35.53
2023-01-19T09:59:47.778Z,34.40
2023-01-19T10:02:38.183Z,34.22
2023-01-19T10:05:25.288Z,34.80
2023-01-19T10:08:13.609Z,34.65
2023-01-19T10:10:53.249Z,31.25
2023-01-19T10:13:37.575Z,35.08
2023-01-19T10:16:27.123Z,34.90
2023-01-19T10:19:13.563Z,31.85
2023-01-19T10:21:48.577Z,35.33
2023-01-19T10:24:26.819Z,36.63
2023-01-19T10:27:00.869Z,28.02
2023-01-19T10:29:38.203Z,32.42
2023-01-19T10:32:17.068Z,33.47
2023-01-19T10:34:52.211Z,30.05
2023-01-19T10:37:31.452Z,31.48
2023-01-19T10:40:23.439Z,35.08
2023-01-19T10:42:59.024Z,27.20
2023-01-19T10:45:36.698Z,27.88
2023-01-19T10:48:13.832Z,31.67
2023-01-19T10:50:47.561Z,30.10
2023-01-19T10:53:25.664Z,27.17
2023-01-19T10:56:17.618Z,31.53
2023-01-19T10:58:51.614Z,30.05
2023-01-19T11:01:28.511Z,27.75
2023-01-19T11:04:19.665Z,29.95
2023-01-19T11:06:53.207Z,28.25
2023-01-19T11:09:27.003Z,25.77
2023-01-19T11:12:00.794Z,26.30
2023-01-19T11:14:34.523Z,23.52
2023-01-19T11:17:20.278Z,29.90
2023-01-19T11:19:57.278Z,28.42
2023-01-19T11:22:34.008Z,25.75
2023-01-19T11:25:08.503Z,26.00
2023-01-19T11:27:51.401Z,31.70
2023-01-19T11:30:27.483Z,27.92
2023-01-19T11:33:03.050Z,24.42
2023-01-19T11:35:39.155Z,25.63
2023-01-19T11:38:19.659Z,28.52
2023-01-19T11:40:56.615Z,29.40
2023-01-19T11:43:47.384Z,26.52
2023-01-19T11:46:24.712Z,26.98
2023-01-19T11:49:04.316Z,29.90
2023-01-19T11:51:44.262Z,27.75
2023-01-19T11:54:24.806Z,29.40
2023-01-19T11:57:00.548Z,30.95
2023-01-19T11:59:34.533Z,26.92
2023-01-19T12:02:21.456Z,32.63
2023-01-19T12:05:01.494Z,26.13
2023-01-19T12:07:38.469Z,32.22
2023-01-19T12:10:26.010Z,28.98
2023-01-19T12:13:01.360Z,27.73
2023-01-19T12:15:39.755Z,26.33
2023-01-19T12:18:19.358Z,29.20
2023-01-19T12:20:56.065Z,27.52
2023-01-19T12:23:41.360Z,27.85
2023-01-19T12:26:39.497Z,25.15
2023-01-19T12:29:16.357Z,26.73
2023-01-19T12:32:20.486Z,27.33
2023-01-19T12:34:55.807Z,27.42
2023-01-19T12:37:37.296Z,27.33
2023-01-19T12:40:25.667Z,23.90
2023-01-19T12:43:02.816Z,26.00
2023-01-19T12:45:39.881Z,26.23
2023-01-19T12:48:26.143Z,27.45
2023-01-19T12:50:59.899Z,24.05
2023-01-19T12:53:34.987Z,26.75
2023-01-19T12:56:10.108Z,25.75
2023-01-19T12:58:50.139Z,23.08
2023-01-19T13:01:25.024Z,21.60
2023-01-19T13:04:06.634Z,20.52
2023-01-19T13:07:10.938Z,21.50
2023-01-19T13:09:45.817Z,24.48
2023-01-19T13:12:27.522Z,20.42
2023-01-19T13:15:30.339Z,21.33
2023-01-19T13:18:05.238Z,20.42
2023-01-19T13:20:47.694Z,21.90
2023-01-19T13:23:26.862Z,22.20
2023-01-19T13:28:41.988Z,20.85
2023-01-19T13:31:16.580Z,19.30
2023-01-19T13:33:53.546Z,20.02
2023-01-19T13:36:31.661Z,19.10
2023-01-19T13:39:08.339Z,23.17
2023-01-19T13:41:44.954Z,20.33
2023-01-19T13:44:25.274Z,22.25
2023-01-19T13:46:59.892Z,20.23
2023-01-19T13:49:36.525Z,22.27
2023-01-19T13:52:16.990Z,23.05
2023-01-19T13:54:53.160Z,23.50
2023-01-19T13:57:30.263Z,21.00
2023-01-19T14:00:18.262Z,20.08
2023-01-19T14:02:55.044Z,22.33
2023-01-19T14:05:31.119Z,19.42
2023-01-19T14:08:12.870Z,20.05
2023-01-19T14:10:48.805Z,20.35
2023-01-19T14:13:26.297Z,24.50
2023-01-19T14:16:05.335Z,22.80
2023-01-19T14:21:14.245Z,20.80
2023-01-19T14:23:50.002Z,17.33
2023-01-19T14:26:46.364Z,20.85
2023-01-19T14:29:25.118Z,17.83
2023-01-19T14:32:13.214Z,21.58
2023-01-19T14:34:49.720Z,20.13
2023-01-19T14:37:27.286Z,16.88
2023-01-19T14:40:04.834Z,17.58
2023-01-19T14:42:40.441Z,23.45
2023-01-19T14:45:21.150Z,20.92
2023-01-19T14:47:57.628Z,13.73
2023-01-19T14:50:34.852Z,13.75
2023-01-19T14:53:15.905Z,20.33
2023-01-19T14:55:54.361Z,22.48
2023-01-19T14:58:33.660Z,22.77
2023-01-19T15:01:09.778Z,19.08
2023-01-19T15:03:45.462Z,15.65
2023-01-19T15:06:23.112Z,17.10
2023-01-19T15:08:56.992Z,19.83
2023-01-19T15:11:33.022Z,16.65
2023-01-19T15:14:07.210Z,14.75
2023-01-19T15:16:42.982Z,16.83
2023-01-19T15:19:18.477Z,17.10
2023-01-19T15:21:51.997Z,16.40
2023-01-19T15:24:25.802Z,19.25
2023-01-19T15:27:01.949Z,19.08
2023-01-19T15:29:35.773Z,20.30
2023-01-19T15:32:14.212Z,23.40
2023-01-19T15:37:21.720Z,18.15
2023-01-19T15:39:55.449Z,17.63
2023-01-19T15:42:29.900Z,20.60
2023-01-19T15:45:04.100Z,17.80
2023-01-19T15:47:39.081Z,18.10
2023-01-19T15:50:12.772Z,17.48
2023-01-19T15:52:46.401Z,24.27
2023-01-19T15:55:20.426Z,21.38
2023-01-19T15:57:54.043Z,19.92
2023-01-19T16:00:28.062Z,21.52
2023-01-19T16:03:03.792Z,23.30
2023-01-19T16:05:42.781Z,20.30
2023-01-19T16:08:17.356Z,22.55
2023-01-19T16:10:51.329Z,18.20
2023-01-19T16:13:27.279Z,18.80
2023-01-19T16:16:05.259Z,18.10
2023-01-19T16:18:40.126Z,19.75
2023-01-19T16:21:14.088Z,18.65
2023-01-19T16:23:47.666Z,16.05
2023-01-19T16:26:29.874Z,14.63
2023-01-19T16:29:07.816Z,18.80
2023-01-19T16:31:45.336Z,17.48
2023-01-19T16:34:20.268Z,15.13
2023-01-19T16:36:54.031Z,15.98
2023-01-19T16:39:27.596Z,20.83
2023-01-19T16:42:01.425Z,18.92
2023-01-19T16:44:34.877Z,18.42
2023-01-19T16:47:08.967Z,23.15
2023-01-19T16:49:44.025Z,16.65
2023-01-19T16:52:17.858Z,19.63
2023-01-19T16:54:54.564Z,23.33
2023-01-19T16:57:30.105Z,27.83
2023-01-19T17:00:04.589Z,15.43
2023-01-19T17:02:38.580Z,24.63
2023-01-19T17:05:14.483Z,18.63
2023-01-19T17:07:48.496Z,17.13
2023-01-19T17:10:22.215Z,21.30
2023-01-19T17:12:56.081Z,14.07
2023-01-19T17:15:31.130Z,15.57
2023-01-19T17:18:05.154Z,19.10
2023-01-19T17:20:40.457Z,10.63
2023-01-19T17:23:14.365Z,16.73
2023-01-19T17:25:53.640Z,14.98
2023-01-19T17:28:27.675Z,12.80
2023-01-19T17:31:07.848Z,15.82
2023-01-19T17:33:44.092Z,9.85
2023-01-19T17:36:22.433Z,14.35
2023-01-19T17:38:58.254Z,19.42
2023-01-19T17:41:34.912Z,14.60
2023-01-19T17:44:08.879Z,13.82
2023-01-19T17:46:42.743Z,11.65
2023-01-19T17:49:16.935Z,13.93
2023-01-19T17:51:54.862Z,10.77
2023-01-19T17:54:29.206Z,13.68
2023-01-19T17:57:02.920Z,10.88
2023-01-19T17:59:37.692Z,11.35
2023-01-19T18:02:11.912Z,14.98
2023-01-19T18:04:45.859Z,10.60
2023-01-19T18:07:20.722Z,11.20
2023-01-19T18:09:56.509Z,8.43
2023-01-19T18:12:32.103Z,10.38
2023-01-19T18:15:07.264Z,9.95
2023-01-19T18:17:40.883Z,14.52
2023-01-19T18:20:14.944Z,10.15
2023-01-19T18:22:50.006Z,9.38
2023-01-19T18:25:23.777Z,16.30
2023-01-19T18:27:59.310Z,21.88
2023-01-19T18:30:34.651Z,29.65
2023-01-19T18:33:08.311Z,14.23
2023-01-19T18:35:42.152Z,18.40
2023-01-19T18:38:17.368Z,18.05
2023-01-19T18:41:00.396Z,14.18
2023-01-19T18:43:34.778Z,15.98
2023-01-19T18:46:09.136Z,14.63
2023-01-19T18:48:42.831Z,9.32
2023-01-19T18:51:17.756Z,10.80
2023-01-19T18:53:52.699Z,7.57
2023-01-19T18:56:27.215Z,8.00
2023-01-19T18:59:02.447Z,9.27
2023-01-19T19:01:36.512Z,9.15
2023-01-19T19:04:10.219Z,11.02
2023-01-19T19:06:43.993Z,11.25
2023-01-19T19:09:18.851Z,9.82
2023-01-19T19:11:52.681Z,11.60
2023-01-19T19:14:26.236Z,5.82
2023-01-19T19:16:59.951Z,8.60
2023-01-19T19:19:33.792Z,11.50
2023-01-19T19:22:07.620Z,6.35
2023-01-19T19:24:42.523Z,6.95
2023-01-19T19:27:17.714Z,9.52
2023-01-19T19:29:51.487Z,12.32
2023-01-19T19:32:40.228Z,8.52
2023-01-19T19:35:15.242Z,13.13
2023-01-19T19:37:49.349Z,15.20
2023-01-19T19:40:25.605Z,11.60
2023-01-19T19:42:59.272Z,10.75
2023-01-19T19:45:33.278Z,12.57
2023-01-19T19:48:07.305Z,9.05
2023-01-19T19:50:41.041Z,12.32
2023-01-19T19:53:14.800Z,14.43
2023-01-19T19:55:58.080Z,8.65
2023-01-19T19:58:32.626Z,14.15
2023-01-19T20:01:10.479Z,8.35
2023-01-19T20:03:44.550Z,20.88
2023-01-19T20:06:21.361Z,11.18
2023-01-19T20:08:57.067Z,11.82
2023-01-19T20:11:32.108Z,11.73
2023-01-19T20:14:06.578Z,13.55
2023-01-19T20:16:41.114Z,10.50
2023-01-19T20:19:15.242Z,16.42
2023-01-19T20:21:48.820Z,12.90
2023-01-19T20:24:22.836Z,11.10
2023-01-19T20:26:57.741Z,12.10
2023-01-19T20:29:31.820Z,10.85
2023-01-19T20:32:05.563Z,9.68
2023-01-19T20:34:39.901Z,14.32
2023-01-19T20:37:13.470Z,10.55
2023-01-19T20:39:47.270Z,10.32
2023-01-19T20:42:22.325Z,8.80
2023-01-19T20:44:56.656Z,14.10
2023-01-19T20:47:32.326Z,10.25
2023-01-19T20:50:07.326Z,8.57
2023-01-19T20:52:41.144Z,16.08
2023-01-19T20:55:15.116Z,12.10
2023-01-19T20:57:50.234Z,14.30
2023-01-19T21:00:25.016Z,13.50
2023-01-19T21:02:58.590Z,12.30
2023-01-19T21:05:32.779Z,9.60
2023-01-19T21:08:06.640Z,9.77
2023-01-19T21:10:40.631Z,11.77
2023-01-19T21:13:15.575Z,9.82
2023-01-19T21:15:49.334Z,12.27
2023-01-19T21:18:22.966Z,10.98
2023-01-19T21:20:57.386Z,11.20
2023-01-19T21:23:31.081Z,14.38
2023-01-19T21:26:05.017Z,16.58
2023-01-19T21:28:40.587Z,15.60
2023-01-19T21:31:15.427Z,18.05
2023-01-19T21:33:53.375Z,10.73
2023-01-19T21:36:27.817Z,16.60
2023-01-19T21:39:01.473Z,14.40
2023-01-19T21:41:35.866Z,10.25
2023-01-19T21:44:12.156Z,13.93
2023-01-19T21:46:46.090Z,11.73
2023-01-19T21:49:30.911Z,12.52
2023-01-19T21:52:04.873Z,18.15
2023-01-19T21:54:38.575Z,12.15
2023-01-19T21:57:15.122Z,11.77
2023-01-19T21:59:50.508Z,10.38
2023-01-19T22:02:37.868Z,12.45
2023-01-19T22:05:12.392Z,15.35
2023-01-19T22:07:46.393Z,14.88
2023-01-19T22:10:20.717Z,16.25
2023-01-19T22:12:54.588Z,10.10
2023-01-19T22:15:30.586Z,8.57
2023-01-19T22:18:04.564Z,19.88
2023-01-19T22:20:38.322Z,13.30
2023-01-19T22:23:12.075Z,18.35
2023-01-19T22:25:45.526Z,10.38
2023-01-19T22:28:25.445Z,9.50
2023-01-19T22:31:21.473Z,11.75
2023-01-19T22:33:56.343Z,12.05
2023-01-19T22:36:31.389Z,9.07
2023-01-19T22:39:07.165Z,13.55
2023-01-19T22:41:42.976Z,10.77
2023-01-19T22:44:20.295Z,10.13
2023-01-19T22:46:56.619Z,8.70
2023-01-19T22:49:30.684Z,10.05
2023-01-19T22:52:04.694Z,12.73
2023-01-19T22:54:38.576Z,12.00
2023-01-19T22:57:12.269Z,15.82
2023-01-19T22:59:46.173Z,8.23
2023-01-19T23:02:21.637Z,19.00
2023-01-19T23:04:55.433Z,12.73
2023-01-19T23:07:29.057Z,18.80
2023-01-19T23:10:03.015Z,7.35
2023-01-19T23:12:36.547Z,9.38
2023-01-19T23:15:11.298Z,14.77
2023-01-19T23:17:48.928Z,7.25
2023-01-19T23:20:22.872Z,14.07
2023-01-19T23:22:56.536Z,14.02
2023-01-19T23:25:32.116Z,11.05
2023-01-19T23:28:05.879Z,9.30
2023-01-19T23:30:39.741Z,16.77
2023-01-19T23:33:14.703Z,10.45
2023-01-19T23:35:48.451Z,12.48
2023-01-19T23:38:22.628Z,14.20
2023-01-19T23:40:57.983Z,9.43
2023-01-19T23:43:31.654Z,14.55
2023-01-19T23:46:07.061Z,13.52
2023-01-19T23:48:42.263Z,13.38
2023-01-19T23:51:17.642Z,13.00
2023-01-19T23:53:51.594Z,18.13
2023-01-19T23:56:26.783Z,9.82
2023-01-19T23:59:02.581Z,7.15
